Time;durP1;ratioP1;P1;durP2;ratioP2;P2;SDS_P1;SDS_P2;PMS_P1;PMS_P2;Temp;Humidity;BMP_temperature;BMP_pressure;BME280_temperature;BME280_humidity;BME280_pressure;Samples;Min_cycle;Max_cycle;Signal;HPM_P1;HPM_P2
2022/03/04 00:00:07;;;;;;;;;;;1.60;99.90;;;;;;5134140;28;19927;-69
2022/03/04 00:02:33;;;;;;;;;;;1.60;99.90;;;;;;5116325;28;19927;-69
2022/03/04 00:04:58;;;;;;;;;;;1.60;99.90;;;;;;5133865;28;19946;-69
2022/03/04 00:07:24;;;;;;;;;;;1.50;99.90;;;;;;5099132;28;19923;-68
2022/03/04 00:09:50;;;;;;;;;;;2.90;99.90;;;;;;5134056;28;19923;-68
2022/03/04 00:12:15;;;;;;;;;;;1.50;99.90;;;;;;5134075;28;19966;-72
2022/03/04 00:14:41;;;;;;;;;;;3.50;99.90;;;;;;5134012;28;19930;-69
2022/03/04 00:17:06;;;;;;;;;;;1.50;99.90;;;;;;5115764;28;19924;-72
2022/03/04 00:19:32;;;;;;;;;;;1.50;99.90;;;;;;5134095;28;20006;-69
2022/03/04 00:21:57;;;;;;;;;;;2.70;99.90;;;;;;5150458;27;20372;-74
2022/03/04 00:24:23;;;;;;;;;;;3.40;99.90;;;;;;5137341;27;19924;-70
2022/03/04 00:26:49;;;;;;;;;;;2.40;99.90;;;;;;5137550;27;19927;-69
2022/03/04 00:29:15;;;;;;;;;;;1.40;99.90;;;;;;5136670;27;19930;-69
2022/03/04 00:31:40;;;;;;;;;;;1.40;99.90;;;;;;5137730;27;20277;-70
2022/03/04 00:34:06;;;;;;;;;;;1.80;99.90;;;;;;5119005;27;19924;-70
2022/03/04 00:36:32;;;;;;;;;;;1.30;99.90;;;;;;5137423;27;19975;-71
2022/03/04 00:38:58;;;;;;;;;;;2.20;99.90;;;;;;5137642;27;20536;-69
2022/03/04 00:41:24;;;;;;;;;;;1.30;99.90;;;;;;5137153;27;19923;-70
2022/03/04 00:43:50;;;;;;;;;;;1.30;99.90;;;;;;5137249;27;19932;-69
2022/03/04 00:46:16;;;;;;;;;;;3.30;99.90;;;;;;5137114;27;19927;-69
2022/03/04 00:48:42;;;;;;;;;;;1.20;99.90;;;;;;5137395;27;19967;-69
2022/03/04 00:51:08;;;;;;;;;;;1.50;99.90;;;;;;5137286;27;19924;-69
2022/03/04 00:53:34;;;;;;;;;;;2.00;99.90;;;;;;5137211;27;19934;-70
2022/03/04 00:55:59;;;;;;;;;;;1.20;99.90;;;;;;5137019;27;19977;-69
2022/03/04 00:58:25;;;;;;;;;;;2.50;99.90;;;;;;5118672;27;20305;-69
2022/03/04 01:00:51;;;;;;;;;;;1.70;99.90;;;;;;5136939;27;20377;-69
2022/03/04 01:03:16;;;;;;;;;;;3.10;99.90;;;;;;5136576;27;19923;-72
2022/03/04 01:05:42;;;;;;;;;;;1.10;99.90;;;;;;5136909;27;19970;-70
2022/03/04 01:08:08;;;;;;;;;;;1.10;99.90;;;;;;5118476;27;19930;-70
2022/03/04 01:10:34;;;;;;;;;;;1.10;99.90;;;;;;5136823;27;19931;-69
2022/03/04 01:12:59;;;;;;;;;;;1.00;99.90;;;;;;5152352;27;19923;-69
2022/03/04 01:15:25;;;;;;;;;;;2.80;99.90;;;;;;5136635;27;19950;-69
2022/03/04 01:17:51;;;;;;;;;;;1.10;99.90;;;;;;5136524;27;19930;-69
2022/03/04 01:20:16;;;;;;;;;;;3.00;99.90;;;;;;5118321;27;20491;-70
2022/03/04 01:22:42;;;;;;;;;;;0.90;99.90;;;;;;5153005;27;19923;-68
2022/03/04 01:25:07;;;;;;;;;;;0.90;99.90;;;;;;5152218;27;19924;-70
2022/03/04 01:27:33;;;;;;;;;;;0.90;99.90;;;;;;5136246;27;19927;-73
2022/03/04 01:29:59;;;;;;;;;;;0.80;99.90;;;;;;5136484;27;19931;-71
2022/03/04 01:32:24;;;;;;;;;;;0.80;99.90;;;;;;5152662;27;19923;-72
2022/03/04 01:34:50;;;;;;;;;;;0.80;99.90;;;;;;5152543;27;20384;-71
2022/03/04 01:37:15;;;;;;;;;;;1.80;99.90;;;;;;5136079;27;19927;-71
2022/03/04 01:39:41;;;;;;;;;;;0.70;99.90;;;;;;5118195;27;19966;-69
2022/03/04 01:42:07;;;;;;;;;;;0.70;99.90;;;;;;5136099;27;20374;-72
2022/03/04 01:44:32;;;;;;;;;;;0.70;99.90;;;;;;5117752;27;19924;-69
2022/03/04 01:46:58;;;;;;;;;;;0.60;99.90;;;;;;5135948;27;19930;-68
2022/03/04 01:49:24;;;;;;;;;;;0.60;99.90;;;;;;5135804;27;19979;-69
2022/03/04 01:51:49;;;;;;;;;;;0.60;99.90;;;;;;5136101;27;20051;-72
2022/03/04 01:54:15;;;;;;;;;;;1.90;99.90;;;;;;5117922;27;20374;-69
2022/03/04 01:56:41;;;;;;;;;;;1.50;99.90;;;;;;5117685;27;19930;-72
2022/03/04 01:59:07;;;;;;;;;;;1.70;99.90;;;;;;5117520;27;20027;-69
2022/03/04 02:01:33;;;;;;;;;;;2.30;99.90;;;;;;5152085;27;20371;-71
2022/03/04 02:03:59;;;;;;;;;;;0.50;99.90;;;;;;5135543;27;19923;-68
2022/03/04 02:06:24;;;;;;;;;;;1.10;99.90;;;;;;5117712;27;19930;-69
2022/03/04 02:08:50;;;;;;;;;;;0.50;99.90;;;;;;5117296;27;19923;-71
2022/03/04 02:11:16;;;;;;;;;;;1.20;99.90;;;;;;5135636;27;19924;-69
2022/03/04 02:13:43;;;;;;;;;;;0.40;99.90;;;;;;5135628;27;20014;-69
2022/03/04 02:16:17;;;;;;;;;;;0.40;99.90;;;;;;5135478;27;19923;-68
2022/03/04 02:18:43;;;;;;;;;;;0.50;99.90;;;;;;5135242;27;19929;-69
2022/03/04 02:21:10;;;;;;;;;;;0.50;99.90;;;;;;5117219;27;20005;-69
2022/03/04 02:23:36;;;;;;;;;;;0.40;99.90;;;;;;5117213;27;20025;-69
2022/03/04 02:26:01;;;;;;;;;;;2.20;99.90;;;;;;5135361;27;19986;-69
2022/03/04 02:28:27;;;;;;;;;;;2.20;99.90;;;;;;5135329;27;19924;-68
2022/03/04 02:30:52;;;;;;;;;;;0.40;99.90;;;;;;5151653;27;19924;-71
2022/03/04 02:33:18;;;;;;;;;;;1.60;99.90;;;;;;5117075;27;20381;-70
2022/03/04 02:35:44;;;;;;;;;;;0.50;99.90;;;;;;5151656;27;19924;-72
2022/03/04 02:38:10;;;;;;;;;;;2.30;99.90;;;;;;5135152;27;19982;-68
2022/03/04 02:40:36;;;;;;;;;;;1.00;99.90;;;;;;5135137;27;19955;-68
2022/03/04 02:43:01;;;;;;;;;;;0.30;99.90;;;;;;5134961;27;19927;-72
2022/03/04 02:45:27;;;;;;;;;;;0.30;99.90;;;;;;5134410;27;20378;-69
2022/03/04 02:47:53;;;;;;;;;;;0.30;99.90;;;;;;5134840;27;20293;-68
2022/03/04 02:50:18;;;;;;;;;;;0.30;99.90;;;;;;5151342;27;19927;-71
2022/03/04 02:52:44;;;;;;;;;;;0.30;99.90;;;;;;5135016;27;19949;-69
2022/03/04 02:55:11;;;;;;;;;;;2.40;99.90;;;;;;5116585;28;19998;-70
2022/03/04 02:57:41;;;;;;;;;;;2.40;99.90;;;;;;5134794;27;19931;-70
2022/03/04 03:00:07;;;;;;;;;;;0.30;99.90;;;;;;5150907;27;19923;-69
2022/03/04 03:02:32;;;;;;;;;;;0.30;99.90;;;;;;5116453;27;19973;-71
2022/03/04 03:04:58;;;;;;;;;;;0.50;99.90;;;;;;5150756;27;20019;-69
2022/03/04 03:07:23;;;;;;;;;;;1.20;99.90;;;;;;5099717;28;19978;-68
2022/03/04 03:09:49;;;;;;;;;;;1.60;99.90;;;;;;5116764;28;19930;-68
2022/03/04 03:12:15;;;;;;;;;;;0.20;99.90;;;;;;5134668;28;19927;-71
2022/03/04 03:14:40;;;;;;;;;;;1.10;99.90;;;;;;5134678;28;20294;-73
2022/03/04 03:17:06;;;;;;;;;;;0.30;99.90;;;;;;5134602;28;19924;-68
2022/03/04 03:19:31;;;;;;;;;;;0.30;99.90;;;;;;5134260;28;19980;-70
2022/03/04 03:21:57;;;;;;;;;;;1.00;99.90;;;;;;5134716;28;19924;-71
2022/03/04 03:24:22;;;;;;;;;;;0.30;99.90;;;;;;5134684;28;19923;-69
2022/03/04 03:26:48;;;;;;;;;;;1.60;99.90;;;;;;5150305;27;19946;-69
2022/03/04 03:29:14;;;;;;;;;;;0.30;99.90;;;;;;5150905;27;19923;-69
2022/03/04 03:31:39;;;;;;;;;;;2.30;99.90;;;;;;5116421;28;20306;-69
2022/03/04 03:34:05;;;;;;;;;;;0.20;99.90;;;;;;5150787;27;19965;-71
2022/03/04 03:36:30;;;;;;;;;;;0.20;99.90;;;;;;5134318;28;19976;-69
2022/03/04 03:38:56;;;;;;;;;;;2.10;99.90;;;;;;5134604;28;19923;-69
2022/03/04 03:41:21;;;;;;;;;;;1.80;99.90;;;;;;5134523;28;19981;-72
2022/03/04 03:43:47;;;;;;;;;;;0.70;99.90;;;;;;5134378;28;19927;-69
2022/03/04 03:46:13;;;;;;;;;;;0.10;99.90;;;;;;5116268;28;20017;-69
2022/03/04 03:48:40;;;;;;;;;;;1.50;99.90;;;;;;5116199;28;19923;-68
2022/03/04 03:51:06;;;;;;;;;;;0.10;99.90;;;;;;5134031;28;19928;-69
2022/03/04 03:53:32;;;;;;;;;;;2.50;99.90;;;;;;5134502;28;19923;-70
2022/03/04 03:55:57;;;;;;;;;;;0.10;99.90;;;;;;5134343;28;19924;-69
2022/03/04 03:58:23;;;;;;;;;;;2.10;99.90;;;;;;5137775;27;19923;-69
2022/03/04 04:00:49;;;;;;;;;;;0.30;99.90;;;;;;5138204;27;20370;-71
2022/03/04 04:03:14;;;;;;;;;;;1.20;99.90;;;;;;5137907;27;20410;-68
2022/03/04 04:05:40;;;;;;;;;;;0.00;99.90;;;;;;5137994;27;19923;-69
2022/03/04 04:08:06;;;;;;;;;;;0.00;99.90;;;;;;5138033;27;19930;-73
2022/03/04 04:10:32;;;;;;;;;;;0.00;99.90;;;;;;5138088;27;20374;-69
2022/03/04 04:12:57;;;;;;;;;;;1.00;99.90;;;;;;5154292;27;19927;-71
2022/03/04 04:15:23;;;;;;;;;;;0.00;99.90;;;;;;5154410;27;19975;-69
2022/03/04 04:17:48;;;;;;;;;;;1.60;99.90;;;;;;5137695;27;20348;-71
2022/03/04 04:20:14;;;;;;;;;;;-0.80;99.90;;;;;;5137631;27;19974;-69
2022/03/04 04:22:39;;;;;;;;;;;1.20;99.90;;;;;;5154022;27;20343;-69
2022/03/04 04:25:06;;;;;;;;;;;0.90;99.90;;;;;;5137930;27;20014;-69
2022/03/04 04:27:31;;;;;;;;;;;0.10;99.90;;;;;;5137689;27;20351;-72
2022/03/04 04:29:57;;;;;;;;;;;1.60;99.90;;;;;;5137690;27;19971;-67
2022/03/04 04:32:23;;;;;;;;;;;0.10;99.90;;;;;;5137651;27;19923;-69
2022/03/04 04:34:48;;;;;;;;;;;0.90;99.90;;;;;;5136242;27;20022;-67
2022/03/04 04:37:14;;;;;;;;;;;0.10;99.90;;;;;;5118527;27;19930;-72
2022/03/04 04:39:39;;;;;;;;;;;0.10;99.90;;;;;;5153954;27;19924;-68
2022/03/04 04:42:05;;;;;;;;;;;0.10;99.90;;;;;;5153531;27;19927;-71
2022/03/04 04:44:31;;;;;;;;;;;0.10;99.90;;;;;;5137437;27;19923;-69
2022/03/04 04:46:56;;;;;;;;;;;0.50;99.90;;;;;;5137297;27;19927;-69
2022/03/04 04:49:22;;;;;;;;;;;0.20;99.90;;;;;;5137210;27;19931;-69
2022/03/04 04:51:47;;;;;;;;;;;1.00;99.90;;;;;;5153478;27;20022;-69
2022/03/04 04:54:13;;;;;;;;;;;0.00;99.90;;;;;;5137047;27;19931;-71
2022/03/04 04:56:38;;;;;;;;;;;2.00;99.90;;;;;;5118619;27;19924;-69
2022/03/04 04:59:04;;;;;;;;;;;0.50;99.90;;;;;;5137207;27;19977;-70
2022/03/04 05:01:29;;;;;;;;;;;0.30;99.90;;;;;;5136995;27;19928;-69
2022/03/04 05:03:55;;;;;;;;;;;0.30;99.90;;;;;;5135299;27;19927;-68
2022/03/04 05:06:21;;;;;;;;;;;0.30;99.90;;;;;;5136765;27;19968;-69
2022/03/04 05:08:46;;;;;;;;;;;0.30;99.90;;;;;;5135970;27;19924;-71
2022/03/04 05:11:12;;;;;;;;;;;1.40;99.90;;;;;;5136948;27;20271;-69
2022/03/04 05:13:37;;;;;;;;;;;0.20;99.90;;;;;;5136711;27;20338;-68
2022/03/04 05:16:03;;;;;;;;;;;0.20;99.90;;;;;;5136765;27;19930;-70
2022/03/04 05:18:28;;;;;;;;;;;0.20;99.90;;;;;;5136658;27;19924;-69
2022/03/04 05:20:54;;;;;;;;;;;0.20;99.90;;;;;;5136854;27;19976;-69
2022/03/04 05:26:04;;;;;;;;;;;0.70;99.90;;;;;;5136576;27;19938;-69
2022/03/04 05:28:29;;;;;;;;;;;1.00;99.90;;;;;;5136508;27;19924;-68
2022/03/04 05:30:55;;;;;;;;;;;1.70;99.90;;;;;;5136531;27;19996;-69
2022/03/04 05:33:20;;;;;;;;;;;0.20;99.90;;;;;;5118259;27;19930;-72
2022/03/04 05:35:46;;;;;;;;;;;0.20;99.90;;;;;;5136361;27;20370;-70
2022/03/04 05:38:11;;;;;;;;;;;2.20;99.90;;;;;;5117757;27;19931;-69
2022/03/04 05:40:37;;;;;;;;;;;0.60;99.90;;;;;;5136107;27;19930;-69
2022/03/04 05:43:03;;;;;;;;;;;0.20;99.90;;;;;;5136214;27;19963;-69
2022/03/04 05:45:29;;;;;;;;;;;0.20;99.90;;;;;;5152522;27;19924;-69
2022/03/04 05:47:54;;;;;;;;;;;0.20;99.90;;;;;;5136089;27;19930;-69
2022/03/04 05:50:20;;;;;;;;;;;1.50;99.90;;;;;;5136149;27;19923;-70
2022/03/04 05:52:45;;;;;;;;;;;0.20;99.90;;;;;;5135892;27;20010;-69
2022/03/04 05:55:11;;;;;;;;;;;0.20;99.90;;;;;;5135833;27;19924;-68
2022/03/04 05:57:36;;;;;;;;;;;-0.10;99.90;;;;;;5135898;27;19931;-71
2022/03/04 06:00:02;;;;;;;;;;;0.50;99.90;;;;;;5135991;27;19931;-70
2022/03/04 06:02:28;;;;;;;;;;;0.20;99.90;;;;;;5135867;27;19923;-68
2022/03/04 06:04:54;;;;;;;;;;;0.20;99.90;;;;;;5135385;27;19924;-71
2022/03/04 06:07:20;;;;;;;;;;;1.20;99.90;;;;;;5135518;27;19953;-69
2022/03/04 06:09:45;;;;;;;;;;;1.30;99.90;;;;;;5151648;27;19939;-69
2022/03/04 06:12:11;;;;;;;;;;;0.20;99.90;;;;;;5151750;27;19930;-69
2022/03/04 06:14:36;;;;;;;;;;;2.60;99.90;;;;;;5135700;27;19927;-69
2022/03/04 06:17:02;;;;;;;;;;;0.20;99.90;;;;;;5135534;27;20374;-69
2022/03/04 06:19:28;;;;;;;;;;;-1.40;99.90;;;;;;5151563;27;19962;-69
2022/03/04 06:21:54;;;;;;;;;;;0.30;99.90;;;;;;5116323;27;20382;-69
2022/03/04 06:24:20;;;;;;;;;;;1.30;99.90;;;;;;5135255;27;20022;-70
2022/03/04 06:26:45;;;;;;;;;;;1.40;99.90;;;;;;5151725;27;19923;-70
2022/03/04 06:29:11;;;;;;;;;;;0.20;99.90;;;;;;5135437;27;19924;-69
2022/03/04 06:31:36;;;;;;;;;;;0.10;99.90;;;;;;5135265;27;19930;-69
2022/03/04 06:34:02;;;;;;;;;;;0.10;99.90;;;;;;5135275;27;20301;-73
2022/03/04 06:36:27;;;;;;;;;;;1.60;99.90;;;;;;5135223;27;19923;-71
2022/03/04 06:38:53;;;;;;;;;;;0.90;99.90;;;;;;5150975;27;19929;-71
2022/03/04 06:41:18;;;;;;;;;;;0.20;99.90;;;;;;5135478;27;19934;-66
2022/03/04 06:43:44;;;;;;;;;;;0.20;99.90;;;;;;5135099;27;19923;-70
2022/03/04 06:46:10;;;;;;;;;;;0.80;99.90;;;;;;5117032;27;19924;-71
2022/03/04 06:48:36;;;;;;;;;;;1.90;99.90;;;;;;5135005;27;19927;-71
2022/03/04 06:51:02;;;;;;;;;;;0.20;99.90;;;;;;5116127;27;19928;-68
2022/03/04 06:53:27;;;;;;;;;;;0.20;99.90;;;;;;5116799;27;19948;-69
2022/03/04 06:55:53;;;;;;;;;;;0.90;99.90;;;;;;5116673;27;19924;-69
2022/03/04 06:58:19;;;;;;;;;;;2.00;99.90;;;;;;5134531;27;20393;-69
2022/03/04 07:00:45;;;;;;;;;;;1.00;99.90;;;;;;5134910;27;19923;-71
2022/03/04 07:03:10;;;;;;;;;;;1.10;99.90;;;;;;5116568;27;19931;-70
2022/03/04 07:05:37;;;;;;;;;;;-1.70;99.90;;;;;;5134712;27;20267;-69
2022/03/04 07:08:03;;;;;;;;;;;0.20;99.90;;;;;;5150279;27;20022;-70
2022/03/04 07:10:29;;;;;;;;;;;-0.90;99.90;;;;;;5134586;27;19993;-69
2022/03/04 07:12:54;;;;;;;;;;;1.20;99.90;;;;;;5115879;28;20350;-69
2022/03/04 07:15:20;;;;;;;;;;;1.50;99.90;;;;;;5151170;27;19978;-71
2022/03/04 07:17:47;;;;;;;;;;;2.30;99.90;;;;;;5134696;28;19957;-69
2022/03/04 07:20:12;;;;;;;;;;;2.00;99.90;;;;;;5134864;28;20297;-70
2022/03/04 07:22:39;;;;;;;;;;;0.30;99.90;;;;;;5134633;28;20066;-69
2022/03/04 07:25:08;;;;;;;;;;;0.30;99.90;;;;;;5134537;28;19923;-68
2022/03/04 07:27:34;;;;;;;;;;;0.30;99.90;;;;;;5115170;28;19976;-69
2022/03/04 07:30:00;;;;;;;;;;;2.20;99.90;;;;;;5134433;28;19923;-69
2022/03/04 07:32:26;;;;;;;;;;;0.30;99.90;;;;;;5136440;27;19927;-69
2022/03/04 07:34:51;;;;;;;;;;;3.00;99.90;;;;;;5138146;27;20419;-69
2022/03/04 07:37:17;;;;;;;;;;;0.30;99.90;;;;;;5103007;27;19924;-69
2022/03/04 07:39:42;;;;;;;;;;;0.30;99.90;;;;;;5138568;27;20401;-70
2022/03/04 07:42:08;;;;;;;;;;;0.60;99.90;;;;;;5119852;27;20424;-69
2022/03/04 07:44:33;;;;;;;;;;;0.40;99.90;;;;;;5138567;27;19930;-69
2022/03/04 07:46:59;;;;;;;;;;;1.50;99.90;;;;;;5138505;27;19931;-68
2022/03/04 07:49:25;;;;;;;;;;;1.90;99.90;;;;;;5120156;27;20386;-72
2022/03/04 07:51:50;;;;;;;;;;;0.40;99.90;;;;;;5154761;27;19930;-69
2022/03/04 07:54:18;;;;;;;;;;;0.50;99.90;;;;;;5138249;27;20345;-69
2022/03/04 07:56:50;;;;;;;;;;;1.50;99.90;;;;;;5154269;27;19923;-69
2022/03/04 07:59:15;;;;;;;;;;;0.50;99.90;;;;;;5138291;27;19933;-69
2022/03/04 08:01:41;;;;;;;;;;;0.60;99.90;;;;;;5120179;27;19924;-70
2022/03/04 08:04:06;;;;;;;;;;;0.60;99.90;;;;;;5154202;27;19962;-70
2022/03/04 08:06:32;;;;;;;;;;;0.60;99.90;;;;;;5119658;27;19924;-69
2022/03/04 08:08:58;;;;;;;;;;;0.70;99.90;;;;;;5137981;27;19928;-72
2022/03/04 08:11:23;;;;;;;;;;;2.90;99.90;;;;;;5119794;27;20435;-68
2022/03/04 08:13:49;;;;;;;;;;;0.70;99.90;;;;;;5137916;27;20378;-71
2022/03/04 08:16:14;;;;;;;;;;;1.60;99.90;;;;;;5153704;27;19923;-69
2022/03/04 08:18:40;;;;;;;;;;;0.70;99.90;;;;;;5119023;27;19923;-69
2022/03/04 08:21:06;;;;;;;;;;;0.40;99.90;;;;;;5137790;27;19933;-72
2022/03/04 08:23:31;;;;;;;;;;;2.30;99.90;;;;;;5137610;27;20006;-68
2022/03/04 08:26:02;;;;;;;;;;;1.80;99.90;;;;;;5137489;27;19927;-69
2022/03/04 08:28:28;;;;;;;;;;;1.20;99.90;;;;;;5153591;27;20411;-69
2022/03/04 08:30:54;;;;;;;;;;;2.40;99.90;;;;;;5137620;27;19970;-68
2022/03/04 08:33:19;;;;;;;;;;;2.20;99.90;;;;;;5153806;27;19923;-71
2022/03/04 08:35:45;;;;;;;;;;;-1.10;99.90;;;;;;5137707;27;19934;-72
2022/03/04 08:38:10;;;;;;;;;;;1.10;99.90;;;;;;5137416;27;20368;-68
2022/03/04 08:40:36;;;;;;;;;;;1.20;99.90;;;;;;5137359;27;19924;-69
2022/03/04 08:43:02;;;;;;;;;;;1.20;99.90;;;;;;5117729;28;19924;-70
2022/03/04 08:45:27;;;;;;;;;;;2.80;99.90;;;;;;5137163;27;19923;-69
2022/03/04 08:47:53;;;;;;;;;;;1.30;99.90;;;;;;5137345;27;20286;-69
2022/03/04 08:50:19;;;;;;;;;;;2.60;99.90;;;;;;5137302;27;20358;-68
2022/03/04 08:52:45;;;;;;;;;;;1.40;99.90;;;;;;5153464;27;20416;-71
2022/03/04 08:55:14;;;;;;;;;;;1.40;99.90;;;;;;5118806;27;19923;-70
2022/03/04 08:57:43;;;;;;;;;;;1.80;99.90;;;;;;5136657;27;19924;-72
2022/03/04 09:00:10;;;;;;;;;;;1.50;99.90;;;;;;5137154;27;20014;-71
2022/03/04 09:02:35;;;;;;;;;;;1.50;99.90;;;;;;5137207;27;19935;-71
2022/03/04 09:05:02;;;;;;;;;;;1.50;99.90;;;;;;5136888;27;19923;-70
2022/03/04 09:07:27;;;;;;;;;;;2.70;99.90;;;;;;5136875;27;19992;-69
2022/03/04 09:09:53;;;;;;;;;;;1.60;99.90;;;;;;5136706;27;20378;-72
2022/03/04 09:12:19;;;;;;;;;;;3.60;99.90;;;;;;5136633;27;19924;-72
2022/03/04 09:14:45;;;;;;;;;;;1.90;99.90;;;;;;5153217;27;19975;-70
2022/03/04 09:17:11;;;;;;;;;;;1.80;99.90;;;;;;5136638;27;19923;-69
2022/03/04 09:19:36;;;;;;;;;;;-0.20;99.90;;;;;;5136623;27;19930;-71
2022/03/04 09:22:02;;;;;;;;;;;1.90;99.90;;;;;;5136621;27;20042;-69
2022/03/04 09:24:28;;;;;;;;;;;1.90;99.90;;;;;;5136504;27;20033;-71
2022/03/04 09:26:54;;;;;;;;;;;2.40;99.90;;;;;;5136278;27;20378;-69
2022/03/04 09:29:20;;;;;;;;;;;3.40;99.90;;;;;;5136477;27;19931;-69
2022/03/04 09:31:46;;;;;;;;;;;2.10;99.90;;;;;;5152794;27;19924;-70
2022/03/04 09:34:12;;;;;;;;;;;2.10;99.90;;;;;;5136381;27;20443;-69
2022/03/04 09:36:37;;;;;;;;;;;2.20;99.90;;;;;;5136357;27;19948;-69
2022/03/04 09:39:03;;;;;;;;;;;1.10;99.90;;;;;;5136283;27;19930;-68
2022/03/04 09:41:30;;;;;;;;;;;3.20;99.90;;;;;;5136112;27;20350;-69
2022/03/04 09:43:56;;;;;;;;;;;2.40;99.90;;;;;;5152304;27;19979;-69
2022/03/04 09:46:23;;;;;;;;;;;2.50;99.90;;;;;;5136266;27;19924;-69
2022/03/04 09:48:49;;;;;;;;;;;3.90;99.90;;;;;;5136116;27;20433;-72
2022/03/04 09:51:14;;;;;;;;;;;3.10;99.90;;;;;;5135929;27;19974;-69
2022/03/04 09:53:40;;;;;;;;;;;2.70;99.90;;;;;;5152004;27;19967;-69
2022/03/04 09:56:06;;;;;;;;;;;3.20;99.90;;;;;;5151370;27;19923;-69
2022/03/04 09:58:31;;;;;;;;;;;2.90;99.90;;;;;;5135617;27;20396;-70
2022/03/04 10:00:59;;;;;;;;;;;3.20;99.90;;;;;;5135289;27;20366;-70
2022/03/04 10:03:31;;;;;;;;;;;3.80;99.90;;;;;;5151587;27;19923;-71
2022/03/04 10:05:57;;;;;;;;;;;3.00;99.90;;;;;;5135716;27;20014;-69
2022/03/04 10:08:23;;;;;;;;;;;3.30;99.90;;;;;;5135741;27;19924;-69
2022/03/04 10:10:50;;;;;;;;;;;3.20;99.90;;;;;;5117254;27;19923;-69
2022/03/04 10:13:15;;;;;;;;;;;3.60;99.90;;;;;;5117346;27;19933;-68
2022/03/04 10:15:51;;;;;;;;;;;3.40;99.90;;;;;;5135443;27;19923;-68
2022/03/04 10:18:25;;;;;;;;;;;3.50;99.90;;;;;;5117027;27;19923;-69
2022/03/04 10:20:50;;;;;;;;;;;3.60;99.90;;;;;;5116020;27;20010;-69
2022/03/04 10:23:20;;;;;;;;;;;3.70;99.90;;;;;;5117040;27;19958;-71
2022/03/04 10:25:48;;;;;;;;;;;3.80;99.90;;;;;;5135119;27;20462;-70
2022/03/04 10:28:15;;;;;;;;;;;3.90;99.90;;;;;;5134439;27;20287;-72
2022/03/04 10:30:45;;;;;;;;;;;5.40;99.90;;;;;;5135085;27;19930;-72
2022/03/04 10:33:12;;;;;;;;;;;4.10;99.90;;;;;;5135304;27;19923;-70
2022/03/04 10:35:38;;;;;;;;;;;6.00;99.90;;;;;;5116818;27;19966;-69
2022/03/04 10:38:04;;;;;;;;;;;4.30;99.90;;;;;;5135088;27;19928;-69
2022/03/04 10:40:30;;;;;;;;;;;5.40;99.90;;;;;;5116470;27;19930;-70
2022/03/04 10:43:00;;;;;;;;;;;4.50;99.90;;;;;;5116824;27;19923;-69
2022/03/04 10:45:30;;;;;;;;;;;4.50;99.90;;;;;;5135189;27;19931;-69
2022/03/04 10:48:02;;;;;;;;;;;4.60;99.90;;;;;;5116736;27;20018;-69
2022/03/04 10:50:33;;;;;;;;;;;4.70;99.90;;;;;;5135189;27;19924;-71
2022/03/04 10:53:02;;;;;;;;;;;4.80;99.90;;;;;;5098888;27;19967;-69
2022/03/04 10:55:36;;;;;;;;;;;4.90;99.90;;;;;;5116803;27;19976;-71
2022/03/04 10:58:07;;;;;;;;;;;5.00;99.90;;;;;;5134172;27;19931;-69
2022/03/04 11:00:35;;;;;;;;;;;5.10;99.90;;;;;;5134636;27;19934;-72
2022/03/04 11:03:01;;;;;;;;;;;5.20;99.90;;;;;;5134556;27;19924;-70
2022/03/04 11:05:27;;;;;;;;;;;5.20;99.90;;;;;;5116040;27;19924;-69
2022/03/04 11:07:53;;;;;;;;;;;5.20;99.90;;;;;;5134324;27;19923;-69
2022/03/04 11:10:20;;;;;;;;;;;5.30;99.90;;;;;;5134337;27;20405;-70
2022/03/04 11:12:50;;;;;;;;;;;5.30;99.90;;;;;;5116456;28;19969;-69
2022/03/04 11:15:16;;;;;;;;;;;6.80;99.90;;;;;;5134416;28;19927;-70
2022/03/04 11:17:42;;;;;;;;;;;5.50;99.90;;;;;;5134295;28;20280;-71
2022/03/04 11:20:09;;;;;;;;;;;5.60;99.90;;;;;;5115874;28;19931;-72
2022/03/04 11:22:37;;;;;;;;;;;5.60;99.90;;;;;;5134235;28;19924;-70
2022/03/04 11:25:05;;;;;;;;;;;5.70;99.90;;;;;;5134560;28;19923;-70
2022/03/04 11:27:33;;;;;;;;;;;5.80;99.90;;;;;;5115683;28;20278;-72
2022/03/04 11:29:59;;;;;;;;;;;5.80;99.90;;;;;;5134323;28;19963;-69
2022/03/04 11:32:29;;;;;;;;;;;5.90;99.90;;;;;;5115158;28;19930;-70
2022/03/04 11:34:55;;;;;;;;;;;6.00;99.90;;;;;;5116203;28;19973;-73
2022/03/04 11:37:22;;;;;;;;;;;6.00;99.90;;;;;;5134094;28;19924;-69
2022/03/04 11:40:05;;;;;;;;;;;6.10;99.90;;;;;;5134343;28;20399;-69
2022/03/04 11:42:37;;;;;;;;;;;6.20;99.90;;;;;;5134285;28;20346;-69
2022/03/04 11:45:06;;;;;;;;;;;7.30;99.90;;;;;;5116153;28;19924;-72
2022/03/04 11:47:37;;;;;;;;;;;6.20;99.90;;;;;;5134116;28;19966;-70
2022/03/04 11:50:22;;;;;;;;;;;6.30;99.90;;;;;;5133974;28;19924;-72
2022/03/04 11:52:47;;;;;;;;;;;6.30;99.90;;;;;;5134145;28;19923;-70
2022/03/04 11:55:20;;;;;;;;;;;6.30;99.90;;;;;;5116213;28;20374;-70
2022/03/04 11:57:46;;;;;;;;;;;6.30;99.90;;;;;;5115448;28;19927;-72
2022/03/04 12:00:12;;;;;;;;;;;6.40;99.90;;;;;;5134012;28;19924;-73
2022/03/04 12:02:40;;;;;;;;;;;6.80;99.90;;;;;;5134140;28;19976;-71
2022/03/04 12:05:13;;;;;;;;;;;6.50;99.90;;;;;;5115397;28;19932;-70
2022/03/04 12:07:42;;;;;;;;;;;6.50;99.90;;;;;;5133973;28;20006;-70
2022/03/04 12:10:11;;;;;;;;;;;5.00;99.90;;;;;;5134015;28;19931;-69
2022/03/04 12:12:38;;;;;;;;;;;6.60;99.90;;;;;;5133810;28;19972;-70
2022/03/04 12:15:16;;;;;;;;;;;6.70;99.90;;;;;;5133765;28;19968;-70
2022/03/04 12:17:52;;;;;;;;;;;6.70;99.90;;;;;;5134692;27;20385;-72
2022/03/04 12:20:27;;;;;;;;;;;6.80;99.90;;;;;;5119541;27;19923;-69
2022/03/04 12:23:07;;;;;;;;;;;6.90;99.90;;;;;;5119477;27;19923;-72
2022/03/04 12:25:51;;;;;;;;;;;6.90;99.90;;;;;;5137406;27;20390;-70
2022/03/04 12:28:18;;;;;;;;;;;6.90;99.90;;;;;;5137384;27;20352;-70
2022/03/04 12:30:43;;;;;;;;;;;8.20;99.90;;;;;;5137510;27;19969;-73
2022/03/04 12:33:10;;;;;;;;;;;7.00;99.90;;;;;;5137207;27;19931;-70
2022/03/04 12:35:35;;;;;;;;;;;7.00;99.90;;;;;;5137401;27;20409;-70
2022/03/04 12:38:01;;;;;;;;;;;7.00;99.90;;;;;;5137217;27;20010;-71
2022/03/04 12:40:28;;;;;;;;;;;7.20;99.90;;;;;;5119058;27;19923;-70
2022/03/04 12:43:09;;;;;;;;;;;7.20;99.90;;;;;;5137220;27;19923;-71
2022/03/04 12:45:35;;;;;;;;;;;7.00;99.90;;;;;;5137175;27;19923;-70
2022/03/04 12:48:00;;;;;;;;;;;7.00;99.90;;;;;;5137207;27;19946;-73
2022/03/04 12:50:30;;;;;;;;;;;6.90;99.90;;;;;;5137208;27;20079;-71
2022/03/04 12:52:55;;;;;;;;;;;6.90;99.90;;;;;;5136818;27;20275;-70
2022/03/04 12:55:21;;;;;;;;;;;8.60;99.90;;;;;;5137120;27;20010;-73
2022/03/04 12:57:49;;;;;;;;;;;7.30;99.90;;;;;;5118627;27;19924;-73
2022/03/04 13:00:15;;;;;;;;;;;7.00;99.90;;;;;;5136916;27;20089;-73
2022/03/04 13:02:42;;;;;;;;;;;7.00;99.90;;;;;;5118739;27;19923;-70
2022/03/04 13:05:08;;;;;;;;;;;8.10;99.90;;;;;;5136952;27;19924;-70
2022/03/04 13:07:36;;;;;;;;;;;7.00;99.90;;;;;;5136540;27;19923;-70
2022/03/04 13:10:02;;;;;;;;;;;7.00;99.90;;;;;;5118214;27;20393;-70
2022/03/04 13:12:28;;;;;;;;;;;6.90;99.90;;;;;;5136846;27;19939;-72
2022/03/04 13:15:05;;;;;;;;;;;7.00;99.90;;;;;;5118540;27;19923;-72
2022/03/04 13:17:31;;;;;;;;;;;7.00;99.90;;;;;;5136395;27;19971;-71
2022/03/04 13:20:03;;;;;;;;;;;7.30;99.90;;;;;;5117507;27;19978;-70
2022/03/04 13:22:28;;;;;;;;;;;7.00;99.90;;;;;;5136550;27;20271;-70
2022/03/04 13:24:55;;;;;;;;;;;7.00;99.90;;;;;;5135299;27;19931;-71
2022/03/04 13:27:21;;;;;;;;;;;7.10;99.90;;;;;;5118093;27;19924;-72
2022/03/04 13:29:48;;;;;;;;;;;7.00;99.90;;;;;;5135549;27;19977;-70
2022/03/04 13:32:13;;;;;;;;;;;7.90;99.90;;;;;;5118307;27;20014;-70
2022/03/04 13:34:40;;;;;;;;;;;7.00;99.90;;;;;;5100964;27;19958;-70
2022/03/04 13:37:12;;;;;;;;;;;7.00;99.90;;;;;;5136112;27;20417;-69
2022/03/04 13:39:38;;;;;;;;;;;7.00;99.90;;;;;;5136303;27;19930;-73
2022/03/04 13:42:11;;;;;;;;;;;7.00;99.90;;;;;;5136112;27;19923;-71
2022/03/04 13:44:54;;;;;;;;;;;7.00;99.90;;;;;;5135728;27;20458;-75
2022/03/04 13:47:32;;;;;;;;;;;7.00;99.90;;;;;;5117786;27;19953;-74
2022/03/04 13:49:57;;;;;;;;;;;7.00;99.90;;;;;;5135896;27;19927;-70
2022/03/04 13:52:23;;;;;;;;;;;7.10;99.90;;;;;;5135860;27;19925;-72
2022/03/04 13:54:55;;;;;;;;;;;7.10;99.90;;;;;;5117743;27;19930;-69
2022/03/04 13:57:33;;;;;;;;;;;7.00;99.90;;;;;;5117618;27;19924;-70
2022/03/04 14:00:03;;;;;;;;;;;7.00;99.90;;;;;;5135532;27;19931;-70
2022/03/04 14:02:37;;;;;;;;;;;7.30;99.90;;;;;;5117294;27;19923;-71
2022/03/04 14:05:03;;;;;;;;;;;7.10;99.90;;;;;;5117207;27;19923;-71
2022/03/04 14:07:39;;;;;;;;;;;7.30;99.90;;;;;;5117209;27;19923;-70
2022/03/04 14:10:10;;;;;;;;;;;7.10;99.90;;;;;;5135382;27;19924;-70
2022/03/04 14:12:36;;;;;;;;;;;7.10;99.90;;;;;;5135283;27;20085;-70
2022/03/04 14:15:02;;;;;;;;;;;7.10;99.90;;;;;;5135438;27;19927;-70
2022/03/04 14:17:28;;;;;;;;;;;7.10;99.90;;;;;;5135385;27;19930;-72
2022/03/04 14:19:55;;;;;;;;;;;7.10;99.90;;;;;;5135173;27;19924;-70
2022/03/04 14:22:20;;;;;;;;;;;7.10;99.90;;;;;;5135228;27;19923;-70
2022/03/04 14:24:46;;;;;;;;;;;7.10;99.90;;;;;;5116687;27;19930;-74
2022/03/04 14:27:12;;;;;;;;;;;7.10;99.90;;;;;;5116680;27;19977;-70